createdAt,value
2016-05-12T00:00:48.183Z,997.41
2016-05-12T00:01:48.185Z,997.43
2016-05-12T00:02:48.172Z,997.42
2016-05-12T00:03:48.159Z,997.38
2016-05-12T00:04:48.146Z,997.38
2016-05-12T00:05:48.133Z,997.4
2016-05-12T00:06:48.119Z,997.4
2016-05-12T00:07:48.107Z,997.38
2016-05-12T00:08:48.094Z,997.41
2016-05-12T00:09:48.096Z,997.42
2016-05-12T00:10:48.069Z,997.37
2016-05-12T00:11:48.071Z,997.37
2016-05-12T00:12:48.058Z,997.36
2016-05-12T00:13:48.046Z,997.41
2016-05-12T00:14:48.032Z,997.4
2016-05-12T00:15:48.019Z,997.38
2016-05-12T00:16:48.006Z,997.36
2016-05-12T00:17:47.993Z,997.37
2016-05-12T00:18:47.981Z,997.37
2016-05-12T00:19:47.968Z,997.37
2016-05-12T00:20:47.954Z,997.37
2016-05-12T00:21:47.942Z,997.32
2016-05-12T00:22:47.928Z,997.34
2016-05-12T00:23:47.932Z,997.32
2016-05-12T00:24:47.919Z,997.31
2016-05-12T00:25:47.906Z,997.31
2016-05-12T00:26:47.892Z,997.33
2016-05-12T00:27:47.880Z,997.3
2016-05-12T00:28:47.866Z,997.32
2016-05-12T00:29:47.853Z,997.29
2016-05-12T00:30:47.841Z,997.31
2016-05-12T00:31:47.828Z,997.28
2016-05-12T00:32:47.831Z,997.3
2016-05-12T00:33:47.802Z,997.24
2016-05-12T00:34:47.805Z,997.26
2016-05-12T00:35:47.792Z,997.22
2016-05-12T00:36:47.779Z,997.27
2016-05-12T00:37:47.766Z,997.21
2016-05-12T00:38:47.753Z,997.22
2016-05-12T00:39:47.741Z,997.24
2016-05-12T00:40:47.727Z,997.21
2016-05-12T00:41:47.714Z,997.23
2016-05-12T00:42:47.701Z,997.23
2016-05-12T00:43:47.704Z,997.17
2016-05-12T00:44:47.690Z,997.16
2016-05-12T00:45:47.678Z,997.16
2016-05-12T00:46:47.666Z,997.17
2016-05-12T00:47:47.652Z,997.21
2016-05-12T00:48:47.640Z,997.13
2016-05-12T00:49:47.642Z,997.15
2016-05-12T00:50:47.613Z,997.19
2016-05-12T00:51:47.615Z,997.16
2016-05-12T00:52:47.587Z,997.16
2016-05-12T00:53:47.575Z,997.11
2016-05-12T00:54:47.578Z,997.11
2016-05-12T00:55:47.564Z,997.11
2016-05-12T00:56:47.551Z,997.09
2016-05-12T00:57:47.539Z,997.13
2016-05-12T00:58:47.526Z,997.09
2016-05-12T00:59:47.512Z,997.12
2016-05-12T01:00:47.499Z,997.13
2016-05-12T01:01:47.487Z,997.11
2016-05-12T01:02:47.475Z,997.06
2016-05-12T01:03:47.461Z,997.07
2016-05-12T01:04:47.447Z,997.08
2016-05-12T01:05:47.435Z,997.08
2016-05-12T01:06:47.438Z,997.08
2016-05-12T01:07:47.425Z,997.06
2016-05-12T01:08:47.412Z,997.03
2016-05-12T01:09:47.399Z,997.08
2016-05-12T01:10:47.386Z,997.04
2016-05-12T01:11:47.373Z,997.01
2016-05-12T01:12:47.360Z,997.04
2016-05-12T01:13:47.347Z,997.04
2016-05-12T01:14:47.335Z,997.03
2016-05-12T01:15:47.322Z,997.06
2016-05-12T01:16:47.308Z,997.05
2016-05-12T01:17:47.310Z,997.02
2016-05-12T01:18:47.298Z,997.03
2016-05-12T01:19:47.285Z,997.04
2016-05-12T01:20:47.272Z,997
2016-05-12T01:21:47.260Z,997.02
2016-05-12T01:22:47.246Z,997.06
2016-05-12T01:23:47.234Z,997
2016-05-12T01:24:47.221Z,996.99
2016-05-12T01:25:47.207Z,996.96
2016-05-12T01:26:47.195Z,996.99
2016-05-12T01:27:47.197Z,996.97
2016-05-12T01:28:47.169Z,996.95
2016-05-12T01:29:47.156Z,996.95
2016-05-12T01:30:47.159Z,996.91
2016-05-12T01:31:47.145Z,996.92
2016-05-12T01:32:47.133Z,996.91
2016-05-12T01:33:47.119Z,996.91
2016-05-12T01:34:47.106Z,996.88
2016-05-12T01:35:47.094Z,996.9
2016-05-12T01:36:47.097Z,996.87
2016-05-12T01:37:47.069Z,996.86
2016-05-12T01:38:47.055Z,996.86
2016-05-12T01:39:47.042Z,996.84
2016-05-12T01:40:47.029Z,996.85
2016-05-12T01:41:47.017Z,996.87
2016-05-12T01:42:47.003Z,996.85
2016-05-12T01:43:47.005Z,996.85
2016-05-12T01:44:46.993Z,996.9
2016-05-12T01:45:46.980Z,996.84
2016-05-12T01:46:46.999Z,996.8
2016-05-12T01:47:46.954Z,996.82
2016-05-12T01:48:46.941Z,996.85
2016-05-12T01:49:46.929Z,996.83
2016-05-12T01:50:46.915Z,996.83
2016-05-12T01:51:46.902Z,996.85
2016-05-12T01:52:46.890Z,996.79
2016-05-12T01:53:46.876Z,996.82
2016-05-12T01:54:46.879Z,996.81
2016-05-12T01:55:46.867Z,996.81
2016-05-12T01:56:46.854Z,996.79
2016-05-12T01:57:46.840Z,996.78
2016-05-12T01:58:46.828Z,996.75
2016-05-12T01:59:46.815Z,996.76
2016-05-12T02:00:46.801Z,996.75
2016-05-12T02:01:46.803Z,996.74
2016-05-12T02:02:46.775Z,996.71
2016-05-12T02:03:46.779Z,996.69
2016-05-12T02:04:46.750Z,996.67
2016-05-12T02:05:46.752Z,996.67
2016-05-12T02:06:46.724Z,996.65
2016-05-12T02:07:46.727Z,996.67
2016-05-12T02:08:46.808Z,996.68
2016-05-12T02:09:46.700Z,996.68
2016-05-12T02:10:46.688Z,996.67
2016-05-12T02:11:46.675Z,996.66
2016-05-12T02:12:46.662Z,996.66
2016-05-12T02:13:46.649Z,996.65
2016-05-12T02:14:46.636Z,996.66
2016-05-12T02:15:46.623Z,996.63
2016-05-12T02:16:46.814Z,996.71
2016-05-12T02:17:46.613Z,996.7
2016-05-12T02:18:46.599Z,996.66
2016-05-12T02:19:46.588Z,996.69
2016-05-12T02:20:46.574Z,996.67
2016-05-12T02:21:46.562Z,996.64
2016-05-12T02:22:46.548Z,996.68
2016-05-12T02:23:46.535Z,996.65
2016-05-12T02:24:46.773Z,996.62
2016-05-12T02:25:46.510Z,996.61
2016-05-12T02:26:46.496Z,996.6
2016-05-12T02:27:46.484Z,996.58
2016-05-12T02:28:46.470Z,996.6
2016-05-12T02:29:46.458Z,996.61
2016-05-12T02:30:46.461Z,996.56
2016-05-12T02:31:46.448Z,996.59
2016-05-12T02:32:46.826Z,996.56
2016-05-12T02:33:46.406Z,996.58
2016-05-12T02:34:46.408Z,996.55
2016-05-12T02:35:46.396Z,996.57
2016-05-12T02:36:46.383Z,996.53
2016-05-12T02:37:46.369Z,996.57
2016-05-12T02:38:46.358Z,996.54
2016-05-12T02:39:46.344Z,996.53
2016-05-12T02:40:46.831Z,996.58
2016-05-12T02:41:46.319Z,996.53
2016-05-12T02:42:46.305Z,996.54
2016-05-12T02:43:46.292Z,996.54
2016-05-12T02:44:46.294Z,996.52
2016-05-12T02:45:46.282Z,996.53
2016-05-12T02:46:46.488Z,996.55
2016-05-12T02:47:46.257Z,996.55
2016-05-12T02:48:46.837Z,996.54
2016-05-12T02:49:46.230Z,996.53
2016-05-12T02:50:46.218Z,996.51
2016-05-12T02:51:46.205Z,996.48
2016-05-12T02:52:46.191Z,996.57
2016-05-12T02:53:46.179Z,996.5
2016-05-12T02:54:46.165Z,996.46
2016-05-12T02:55:46.153Z,996.44
2016-05-12T02:56:46.842Z,996.43
2016-05-12T02:57:46.126Z,996.48
2016-05-12T02:58:46.146Z,996.43
2016-05-12T02:59:46.101Z,996.43
2016-05-12T03:00:46.104Z,996.41
2016-05-12T03:01:46.075Z,996.38
2016-05-12T03:02:46.078Z,996.37
2016-05-12T03:03:46.080Z,996.36
2016-05-12T03:04:46.146Z,996.34
2016-05-12T03:05:46.039Z,996.35
2016-05-12T03:06:46.026Z,996.32
2016-05-12T03:07:46.013Z,996.33
2016-05-12T03:08:46.000Z,996.33
2016-05-12T03:09:45.987Z,996.33
2016-05-12T03:10:45.975Z,996.29
2016-05-12T03:11:45.961Z,996.31
2016-05-12T03:12:46.902Z,996.3
2016-05-12T03:13:45.952Z,996.28
2016-05-12T03:14:45.938Z,996.28
2016-05-12T03:15:45.925Z,996.27
2016-05-12T03:16:45.912Z,996.26
2016-05-12T03:17:45.900Z,996.24
2016-05-12T03:18:45.886Z,996.23
2016-05-12T03:19:45.874Z,996.26
2016-05-12T03:20:46.158Z,996.21
2016-05-12T03:21:45.848Z,996.22
2016-05-12T03:22:45.834Z,996.22
2016-05-12T03:23:45.821Z,996.25
2016-05-12T03:24:45.809Z,996.28
2016-05-12T03:25:45.796Z,996.28
2016-05-12T03:26:45.798Z,996.24
2016-05-12T03:27:45.770Z,996.3
2016-05-12T03:28:46.867Z,996.25
2016-05-12T03:29:45.759Z,996.27
2016-05-12T03:30:45.747Z,996.28
2016-05-12T03:31:45.734Z,996.29
2016-05-12T03:32:45.721Z,996.26
2016-05-12T03:33:45.708Z,996.28
2016-05-12T03:34:45.695Z,996.2
2016-05-12T03:35:45.681Z,996.22
2016-05-12T03:36:45.669Z,996.26
2016-05-12T03:37:45.672Z,996.22
2016-05-12T03:38:45.644Z,996.24
2016-05-12T03:39:45.631Z,996.23
2016-05-12T03:40:45.617Z,996.21
2016-05-12T03:41:45.619Z,996.2
2016-05-12T03:42:45.607Z,996.22
2016-05-12T03:43:45.578Z,996.18
2016-05-12T03:44:45.581Z,996.22
2016-05-12T03:45:45.568Z,996.21
2016-05-12T03:46:45.711Z,996.23
2016-05-12T03:47:45.543Z,996.17
2016-05-12T03:48:45.530Z,996.22
2016-05-12T03:49:45.516Z,996.23
2016-05-12T03:50:45.504Z,996.22
2016-05-12T03:51:45.491Z,996.16
2016-05-12T03:52:45.478Z,996.22
2016-05-12T03:53:45.465Z,996.21
2016-05-12T03:54:45.452Z,996.21
2016-05-12T03:55:45.439Z,996.19
2016-05-12T03:56:45.426Z,996.24
2016-05-12T03:57:45.429Z,996.19
2016-05-12T03:58:45.401Z,996.27
2016-05-12T03:59:45.404Z,996.23
2016-05-12T04:00:45.374Z,996.26
2016-05-12T04:01:45.377Z,996.25
2016-05-12T04:02:45.364Z,996.26
2016-05-12T04:03:45.351Z,996.29
2016-05-12T04:04:45.339Z,996.26
2016-05-12T04:05:45.326Z,996.29
2016-05-12T04:06:45.312Z,996.31
2016-05-12T04:07:45.300Z,996.28
2016-05-12T04:08:45.286Z,996.26
2016-05-12T04:09:45.273Z,996.28
2016-05-12T04:10:45.261Z,996.33
2016-05-12T04:11:45.248Z,996.28
2016-05-12T04:12:45.235Z,996.25
2016-05-12T04:13:45.238Z,996.22
2016-05-12T04:14:45.208Z,996.29
2016-05-12T04:15:45.211Z,996.23
2016-05-12T04:16:45.636Z,996.27
2016-05-12T04:17:45.185Z,996.28
2016-05-12T04:18:45.173Z,996.25
2016-05-12T04:19:45.160Z,996.25
2016-05-12T04:20:45.147Z,996.25
2016-05-12T04:21:45.134Z,996.25
2016-05-12T04:22:45.137Z,996.29
2016-05-12T04:23:45.107Z,996.27
2016-05-12T04:24:45.095Z,996.23
2016-05-12T04:25:45.082Z,996.26
2016-05-12T04:26:45.069Z,996.22
2016-05-12T04:27:45.056Z,996.25
2016-05-12T04:28:45.043Z,996.21
2016-05-12T04:29:45.046Z,996.25
2016-05-12T04:30:45.018Z,996.23
2016-05-12T04:31:45.067Z,996.25
2016-05-12T04:32:44.992Z,996.26
2016-05-12T04:33:44.995Z,996.26
2016-05-12T04:34:44.997Z,996.24
2016-05-12T04:35:44.984Z,996.28
2016-05-12T04:36:44.955Z,996.26
2016-05-12T04:37:44.943Z,996.22
2016-05-12T04:38:44.931Z,996.28
2016-05-12T04:39:44.917Z,996.25
2016-05-12T04:40:44.903Z,996.21
2016-05-12T04:41:44.891Z,996.23
2016-05-12T04:42:44.877Z,996.21
2016-05-12T04:43:44.865Z,996.21
2016-05-12T04:44:44.853Z,996.18
2016-05-12T04:45:44.839Z,996.19
2016-05-12T04:46:45.123Z,996.2
2016-05-12T04:47:44.829Z,996.21
2016-05-12T04:48:44.800Z,996.18
2016-05-12T04:49:44.787Z,996.18
2016-05-12T04:50:44.791Z,996.24
2016-05-12T04:51:44.777Z,996.2
2016-05-12T04:52:44.749Z,996.2
2016-05-12T04:53:44.751Z,996.19
2016-05-12T04:54:44.738Z,996.2
2016-05-12T04:55:44.726Z,996.14
2016-05-12T04:56:44.713Z,996.15
2016-05-12T04:57:44.699Z,996.2
2016-05-12T04:58:44.687Z,996.22
2016-05-12T04:59:44.674Z,996.22
2016-05-12T05:00:44.660Z,996.21
2016-05-12T05:01:44.648Z,996.18
2016-05-12T05:02:44.634Z,996.19
2016-05-12T05:03:44.623Z,996.17
2016-05-12T05:04:44.609Z,996.15
2016-05-12T05:05:44.612Z,996.15
2016-05-12T05:06:44.584Z,996.17
2016-05-12T05:07:44.570Z,996.14
2016-05-12T05:08:44.557Z,996.15
2016-05-12T05:09:44.559Z,996.16
2016-05-12T05:10:44.547Z,996.17
2016-05-12T05:11:44.534Z,996.11
2016-05-12T05:12:44.522Z,996.13
2016-05-12T05:13:44.508Z,996.17
2016-05-12T05:14:44.495Z,996.08
2016-05-12T05:15:44.482Z,996.08
2016-05-12T05:16:44.469Z,996.06
2016-05-12T05:17:44.456Z,996.09
2016-05-12T05:18:44.444Z,996.13
2016-05-12T05:19:44.430Z,996.07
2016-05-12T05:20:44.418Z,996.07
2016-05-12T05:21:44.405Z,996.06
2016-05-12T05:22:44.407Z,996.08
2016-05-12T05:23:44.380Z,996.08
2016-05-12T05:24:44.382Z,996.07
2016-05-12T05:25:44.353Z,996.06
2016-05-12T05:26:44.340Z,996.06
2016-05-12T05:27:44.343Z,996.06
2016-05-12T05:28:44.329Z,996.05
2016-05-12T05:29:44.317Z,996.06
2016-05-12T05:30:44.304Z,996.02
2016-05-12T05:31:44.588Z,996.04
2016-05-12T05:32:44.278Z,996.05
2016-05-12T05:33:44.265Z,996.01
2016-05-12T05:34:44.252Z,996.02
2016-05-12T05:35:44.239Z,996.02
2016-05-12T05:36:44.226Z,996.03
2016-05-12T05:37:44.213Z,996.01
2016-05-12T05:38:44.201Z,995.96
2016-05-12T05:39:44.188Z,996.04
2016-05-12T05:40:44.175Z,995.99
2016-05-12T05:41:44.178Z,996.02
2016-05-12T05:42:44.148Z,996
2016-05-12T05:43:44.135Z,995.96
2016-05-12T05:44:44.123Z,996.03
2016-05-12T05:45:44.125Z,995.97
2016-05-12T05:46:44.113Z,995.96
2016-05-12T05:47:44.084Z,995.98
2016-05-12T05:48:44.071Z,995.98
2016-05-12T05:49:44.074Z,996.01
2016-05-12T05:50:44.061Z,996.03
2016-05-12T05:51:44.047Z,995.94
2016-05-12T05:52:44.035Z,995.98
2016-05-12T05:53:44.021Z,995.99
2016-05-12T05:54:44.009Z,995.97
2016-05-12T05:55:43.997Z,996.04
2016-05-12T05:56:43.999Z,995.96
2016-05-12T05:57:43.970Z,995.95
2016-05-12T05:58:43.957Z,995.97
2016-05-12T05:59:43.960Z,995.99
2016-05-12T06:00:43.932Z,995.95
2016-05-12T06:01:44.199Z,995.94
2016-05-12T06:02:43.921Z,995.94
2016-05-12T06:03:43.893Z,995.93
2016-05-12T06:04:43.896Z,995.97
2016-05-12T06:05:43.882Z,995.9
2016-05-12T06:06:43.870Z,995.94
2016-05-12T06:07:43.856Z,995.96
2016-05-12T06:08:43.843Z,995.9
2016-05-12T06:09:43.830Z,995.95
2016-05-12T06:10:43.818Z,995.98
2016-05-12T06:11:43.805Z,995.98
2016-05-12T06:12:43.792Z,996
2016-05-12T06:13:43.778Z,995.95
2016-05-12T06:14:43.766Z,995.99
2016-05-12T06:15:43.753Z,995.98
2016-05-12T06:16:43.740Z,995.99
2016-05-12T06:17:43.727Z,996
2016-05-12T06:18:43.714Z,996
2016-05-12T06:19:43.702Z,996.05
2016-05-12T06:20:43.688Z,995.98
2016-05-12T06:21:43.691Z,996.05
2016-05-12T06:22:43.663Z,996.02
2016-05-12T06:23:43.649Z,995.96
2016-05-12T06:24:43.652Z,996.01
2016-05-12T06:25:43.639Z,996.04
2016-05-12T06:26:43.611Z,995.99
2016-05-12T06:27:43.613Z,996.04
2016-05-12T06:28:43.601Z,996.04
2016-05-12T06:29:43.588Z,996.05
2016-05-12T06:30:43.574Z,996
2016-05-12T06:31:43.562Z,996.01
2016-05-12T06:32:43.548Z,996.04
2016-05-12T06:33:43.536Z,995.99
2016-05-12T06:34:43.523Z,996.01
2016-05-12T06:35:43.509Z,996.03
2016-05-12T06:36:43.498Z,996.01
2016-05-12T06:37:43.500Z,995.99
2016-05-12T06:38:43.471Z,996.09
2016-05-12T06:39:43.459Z,996.09
2016-05-12T06:40:43.446Z,995.99
2016-05-12T06:41:43.432Z,995.93
2016-05-12T06:42:43.435Z,996
2016-05-12T06:43:43.406Z,996.05
2016-05-12T06:44:43.394Z,996.04
2016-05-12T06:45:43.397Z,996.02
2016-05-12T06:46:43.602Z,996.04
2016-05-12T06:47:43.370Z,996.02
2016-05-12T06:48:43.357Z,996.03
2016-05-12T06:49:43.387Z,996.05
2016-05-12T06:50:43.417Z,996.04
2016-05-12T06:51:43.447Z,995.94
2016-05-12T06:52:43.477Z,996.06
2016-05-12T06:53:43.508Z,996.03
2016-05-12T06:54:43.510Z,996.04
2016-05-12T06:55:43.513Z,996.05
2016-05-12T06:56:43.515Z,996.02
2016-05-12T06:57:43.533Z,996.02
2016-05-12T06:58:43.519Z,995.97
2016-05-12T06:59:43.527Z,995.99
2016-05-12T07:00:43.521Z,995.99
2016-05-12T07:01:43.715Z,996.04
2016-05-12T07:02:43.506Z,996.05
2016-05-12T07:03:43.544Z,996.02
2016-05-12T07:04:43.481Z,995.98
2016-05-12T07:05:43.471Z,996
2016-05-12T07:06:43.460Z,995.98
2016-05-12T07:07:43.449Z,995.95
2016-05-12T07:08:43.438Z,996.01
2016-05-12T07:09:43.427Z,995.94
2016-05-12T07:10:43.416Z,995.95
2016-05-12T07:11:43.450Z,995.89
2016-05-12T07:12:43.390Z,995.84
2016-05-12T07:13:43.378Z,995.85
2016-05-12T07:14:43.382Z,995.9
2016-05-12T07:15:43.369Z,995.93
2016-05-12T07:16:43.356Z,995.97
2016-05-12T07:17:43.344Z,995.9
2016-05-12T07:18:43.331Z,995.92
2016-05-12T07:19:43.475Z,995.9
2016-05-12T07:20:43.306Z,995.83
2016-05-12T07:21:43.292Z,995.83
2016-05-12T07:22:43.295Z,995.84
2016-05-12T07:23:43.267Z,995.86
2016-05-12T07:24:43.254Z,995.9
2016-05-12T07:25:43.242Z,995.79
2016-05-12T07:26:43.228Z,995.78
2016-05-12T07:27:43.465Z,995.83
2016-05-12T07:28:43.203Z,995.85
2016-05-12T07:29:43.205Z,995.9
2016-05-12T07:30:43.177Z,995.87
2016-05-12T07:31:43.180Z,995.86
2016-05-12T07:32:43.166Z,995.89
2016-05-12T07:33:43.153Z,995.92
2016-05-12T07:34:43.141Z,995.89
2016-05-12T07:35:43.471Z,995.87
2016-05-12T07:36:43.115Z,995.78
2016-05-12T07:37:43.102Z,995.86
2016-05-12T07:38:43.088Z,995.87
2016-05-12T07:39:43.076Z,995.86
2016-05-12T07:40:43.063Z,995.89
2016-05-12T07:41:43.050Z,995.81
2016-05-12T07:42:43.052Z,995.87
2016-05-12T07:43:43.493Z,995.87
2016-05-12T07:44:43.026Z,995.75
2016-05-12T07:45:43.015Z,995.78
2016-05-12T07:46:43.282Z,995.83
2016-05-12T07:47:43.004Z,995.74
2016-05-12T07:48:42.975Z,995.85
2016-05-12T07:49:42.962Z,995.86
2016-05-12T07:50:42.949Z,995.84
2016-05-12T07:51:43.483Z,995.81
2016-05-12T07:52:42.924Z,995.92
2016-05-12T07:53:42.911Z,995.78
2016-05-12T07:54:42.898Z,995.81
2016-05-12T07:55:42.884Z,995.84
2016-05-12T07:56:42.887Z,995.78
2016-05-12T07:57:42.859Z,995.8
2016-05-12T07:58:42.861Z,995.75
2016-05-12T07:59:43.489Z,995.84
2016-05-12T08:00:42.835Z,995.85
2016-05-12T08:01:42.822Z,995.79
2016-05-12T08:02:42.825Z,995.83
2016-05-12T08:03:42.797Z,995.81
2016-05-12T08:04:42.783Z,995.81
2016-05-12T08:05:42.786Z,995.78
2016-05-12T08:06:42.758Z,995.81
2016-05-12T08:07:42.792Z,995.77
2016-05-12T08:08:42.732Z,995.83
2016-05-12T08:09:42.734Z,995.87
2016-05-12T08:10:42.722Z,995.79
2016-05-12T08:11:42.710Z,995.82
2016-05-12T08:12:42.696Z,995.81
2016-05-12T08:13:42.683Z,995.8
2016-05-12T08:14:42.670Z,995.75
2016-05-12T08:15:42.813Z,995.79
2016-05-12T08:16:42.660Z,995.79
2016-05-12T08:17:42.631Z,995.8
2016-05-12T08:18:42.619Z,995.81
2016-05-12T08:19:42.606Z,995.79
2016-05-12T08:20:42.592Z,995.8
2016-05-12T08:21:42.580Z,995.79
2016-05-12T08:22:42.582Z,995.78
2016-05-12T08:23:43.569Z,995.75
2016-05-12T08:24:42.556Z,995.78
2016-05-12T08:25:42.543Z,995.79
2016-05-12T08:26:42.530Z,995.73
2016-05-12T08:27:42.533Z,995.72
2016-05-12T08:28:42.505Z,995.7
2016-05-12T08:29:42.491Z,995.73
2016-05-12T08:30:42.478Z,995.75
2016-05-12T08:31:42.934Z,995.69
2016-05-12T08:32:42.453Z,995.77
2016-05-12T08:33:42.456Z,995.75
2016-05-12T08:34:42.428Z,995.72
2016-05-12T08:35:42.445Z,995.79
2016-05-12T08:36:42.417Z,995.71
2016-05-12T08:37:42.466Z,995.76
2016-05-12T08:38:42.391Z,995.77
2016-05-12T08:39:43.706Z,995.77
2016-05-12T08:40:42.365Z,995.75
2016-05-12T08:41:42.352Z,995.72
2016-05-12T08:42:42.338Z,995.71
2016-05-12T08:43:42.326Z,995.63
2016-05-12T08:44:42.344Z,995.63
2016-05-12T08:45:42.347Z,995.63
2016-05-12T08:46:42.287Z,995.68
2016-05-12T08:47:42.321Z,995.71
2016-05-12T08:48:42.293Z,995.69
2016-05-12T08:49:42.295Z,995.63
2016-05-12T08:50:42.251Z,995.65
2016-05-12T08:51:42.238Z,995.63
2016-05-12T08:52:42.225Z,995.62
2016-05-12T08:53:42.212Z,995.64
2016-05-12T08:54:42.200Z,995.67
2016-05-12T08:55:42.186Z,995.72
2016-05-12T08:56:42.174Z,995.62
2016-05-12T08:57:42.176Z,995.66
2016-05-12T08:58:42.163Z,995.69
2016-05-12T08:59:42.151Z,995.65
2016-05-12T09:00:42.137Z,995.6
2016-05-12T09:01:44.249Z,995.6
2016-05-12T09:02:42.112Z,995.66
2016-05-12T09:03:42.099Z,995.6
2016-05-12T09:04:42.086Z,995.55
2016-05-12T09:05:42.072Z,995.55
2016-05-12T09:06:43.450Z,995.54
2016-05-12T09:07:42.047Z,995.56
2016-05-12T09:08:42.049Z,995.55
2016-05-12T09:09:42.036Z,995.56
2016-05-12T09:10:42.024Z,995.53
2016-05-12T09:11:42.011Z,995.52
2016-05-12T09:12:41.998Z,995.54
2016-05-12T09:13:41.985Z,995.56
2016-05-12T09:14:41.971Z,995.58
2016-05-12T09:15:41.960Z,995.53
2016-05-12T09:16:41.946Z,995.47
2016-05-12T09:17:41.933Z,995.56
2016-05-12T09:18:41.936Z,995.5
2016-05-12T09:19:41.923Z,995.53
2016-05-12T09:20:41.926Z,995.5
2016-05-12T09:21:41.898Z,995.48
2016-05-12T09:22:41.884Z,995.52
2016-05-12T09:23:41.871Z,995.52
2016-05-12T09:24:41.858Z,995.49
2016-05-12T09:25:41.845Z,995.57
2016-05-12T09:26:41.832Z,995.49
2016-05-12T09:27:41.819Z,995.47
2016-05-12T09:28:41.822Z,995.49
2016-05-12T09:29:41.794Z,995.46
2016-05-12T09:30:41.797Z,995.44
2016-05-12T09:31:41.783Z,995.46
2016-05-12T09:32:41.770Z,995.46
2016-05-12T09:33:41.773Z,995.48
2016-05-12T09:34:41.744Z,995.43
2016-05-12T09:35:41.731Z,995.46
2016-05-12T09:36:41.719Z,995.44
2016-05-12T09:37:41.706Z,995.41
2016-05-12T09:38:41.708Z,995.5
2016-05-12T09:39:41.680Z,995.38
2016-05-12T09:40:41.683Z,995.34
2016-05-12T09:41:41.669Z,995.4
2016-05-12T09:42:41.657Z,995.37
2016-05-12T09:43:41.643Z,995.38
2016-05-12T09:44:41.630Z,995.4
2016-05-12T09:45:41.618Z,995.39
2016-05-12T09:46:42.104Z,995.38
2016-05-12T09:47:41.593Z,995.38
2016-05-12T09:48:41.579Z,995.41
2016-05-12T09:49:41.582Z,995.35
2016-05-12T09:50:41.554Z,995.39
2016-05-12T09:51:41.556Z,995.34
2016-05-12T09:52:41.543Z,995.36
2016-05-12T09:53:41.529Z,995.31
2016-05-12T09:54:41.517Z,995.31
2016-05-12T09:55:41.504Z,995.3
2016-05-12T09:56:41.492Z,995.3
2016-05-12T09:57:41.478Z,995.29
2016-05-12T09:58:41.465Z,995.28
2016-05-12T09:59:41.467Z,995.28
2016-05-12T10:00:41.455Z,995.4
2016-05-12T10:01:41.442Z,995.31
2016-05-12T10:02:41.428Z,995.33
2016-05-12T10:03:41.417Z,995.3
2016-05-12T10:04:41.404Z,995.32
2016-05-12T10:05:41.406Z,995.34
2016-05-12T10:06:41.378Z,995.34
2016-05-12T10:07:41.364Z,995.4
2016-05-12T10:08:41.367Z,995.37
2016-05-12T10:09:41.339Z,995.37
2016-05-12T10:10:41.341Z,995.32
2016-05-12T10:11:41.328Z,995.3
2016-05-12T10:12:41.315Z,995.31
2016-05-12T10:13:41.302Z,995.25
2016-05-12T10:14:41.290Z,995.29
2016-05-12T10:15:41.276Z,995.35
2016-05-12T10:16:41.263Z,995.25
2016-05-12T10:17:41.251Z,995.25
2016-05-12T10:18:41.254Z,995.26
2016-05-12T10:19:41.241Z,995.28
2016-05-12T10:20:41.227Z,995.26
2016-05-12T10:21:41.215Z,995.25
2016-05-12T10:22:41.201Z,995.27
2016-05-12T10:23:41.190Z,995.22
2016-05-12T10:24:41.176Z,995.18
2016-05-12T10:25:41.163Z,995.2
2016-05-12T10:26:41.150Z,995.23
2016-05-12T10:27:41.137Z,995.27
2016-05-12T10:28:41.124Z,995.26
2016-05-12T10:29:41.111Z,995.22
2016-05-12T10:30:41.114Z,995.23
2016-05-12T10:31:41.210Z,995.18
2016-05-12T10:32:41.088Z,995.2
2016-05-12T10:33:41.076Z,995.2
2016-05-12T10:34:41.061Z,995.17
2016-05-12T10:35:41.049Z,995.21
2016-05-12T10:36:41.052Z,995.22
2016-05-12T10:37:41.039Z,995.16
2016-05-12T10:38:41.011Z,995.16
2016-05-12T10:39:40.997Z,995.06
2016-05-12T10:40:40.985Z,995.14
2016-05-12T10:41:40.987Z,995.16
2016-05-12T10:42:40.974Z,995.16
2016-05-12T10:43:40.961Z,995.1
2016-05-12T10:44:40.964Z,995.14
2016-05-12T10:45:40.935Z,995.18
2016-05-12T10:46:40.922Z,995.17
2016-05-12T10:47:40.925Z,995.14
2016-05-12T10:48:40.913Z,995.16
2016-05-12T10:49:40.899Z,995.17
2016-05-12T10:50:40.886Z,995.08
2016-05-12T10:51:40.874Z,995.1
2016-05-12T10:52:40.861Z,995.09
2016-05-12T10:53:40.848Z,995.05
2016-05-12T10:54:40.835Z,995.05
2016-05-12T10:55:40.821Z,995.09
2016-05-12T10:56:40.809Z,995.09
2016-05-12T10:57:40.812Z,995.11
2016-05-12T10:58:40.799Z,995.09
2016-05-12T10:59:40.786Z,995.07
2016-05-12T11:00:40.772Z,995.08
2016-05-12T11:01:40.759Z,995.01
2016-05-12T11:02:40.748Z,995.05
2016-05-12T11:03:40.749Z,995.12
2016-05-12T11:04:40.720Z,995.04
2016-05-12T11:05:40.723Z,995.1
2016-05-12T11:06:40.711Z,995.08
2016-05-12T11:07:40.698Z,995.06
2016-05-12T11:08:40.686Z,995.06
2016-05-12T11:09:40.671Z,995.04
2016-05-12T11:10:40.659Z,995.1
2016-05-12T11:11:40.647Z,995.04
2016-05-12T11:12:40.649Z,995
2016-05-12T11:13:40.620Z,995.08
2016-05-12T11:14:40.607Z,995.03
2016-05-12T11:15:40.610Z,994.99
2016-05-12T11:16:40.597Z,995.03
2016-05-12T11:17:40.584Z,995.05
2016-05-12T11:18:40.571Z,994.96
2016-05-12T11:19:40.558Z,994.98
2016-05-12T11:20:40.545Z,994.94
2016-05-12T11:21:40.532Z,994.96
2016-05-12T11:22:40.519Z,994.96
2016-05-12T11:23:40.521Z,994.95
2016-05-12T11:24:40.509Z,994.91
2016-05-12T11:25:40.496Z,994.94
2016-05-12T11:26:40.484Z,994.92
2016-05-12T11:27:40.470Z,994.91
2016-05-12T11:28:40.457Z,994.93
2016-05-12T11:29:40.460Z,994.86
2016-05-12T11:30:40.448Z,994.84
2016-05-12T11:31:40.434Z,994.88
2016-05-12T11:32:40.420Z,994.85
2016-05-12T11:33:40.409Z,994.76
2016-05-12T11:34:40.395Z,994.76
2016-05-12T11:35:40.382Z,994.83
2016-05-12T11:36:40.370Z,994.81
2016-05-12T11:37:40.356Z,994.84
2016-05-12T11:38:40.344Z,994.82
2016-05-12T11:39:40.346Z,994.81
2016-05-12T11:40:40.318Z,994.74
2016-05-12T11:41:40.305Z,994.79
2016-05-12T11:42:40.307Z,994.85
2016-05-12T11:43:40.295Z,994.85
2016-05-12T11:44:40.282Z,994.82
2016-05-12T11:45:40.269Z,994.82
2016-05-12T11:46:40.256Z,994.82
2016-05-12T11:47:40.243Z,994.73
2016-05-12T11:48:40.246Z,994.72
2016-05-12T11:49:40.232Z,994.7
2016-05-12T11:50:40.220Z,994.76
2016-05-12T11:51:40.207Z,994.74
2016-05-12T11:52:40.193Z,994.69
2016-05-12T11:53:40.181Z,994.72
2016-05-12T11:54:40.168Z,994.73
2016-05-12T11:55:40.171Z,994.76
2016-05-12T11:56:40.142Z,994.75
2016-05-12T11:57:40.145Z,994.68
2016-05-12T11:58:40.132Z,994.55
2016-05-12T11:59:40.118Z,994.6
2016-05-12T12:00:40.106Z,994.55
2016-05-12T12:01:40.093Z,994.56
2016-05-12T12:02:40.096Z,994.63
2016-05-12T12:03:40.068Z,994.58
2016-05-12T12:04:40.054Z,994.6
2016-05-12T12:05:40.056Z,994.62
2016-05-12T12:06:40.044Z,994.67
2016-05-12T12:07:40.031Z,994.63
2016-05-12T12:08:40.033Z,994.56
2016-05-12T12:09:40.006Z,994.59
2016-05-12T12:10:40.008Z,994.63
2016-05-12T12:11:39.979Z,994.63
2016-05-12T12:12:39.982Z,994.56
2016-05-12T12:13:39.969Z,994.55
2016-05-12T12:14:39.955Z,994.58
2016-05-12T12:15:39.943Z,994.51
2016-05-12T12:16:39.930Z,994.54
2016-05-12T12:17:39.917Z,994.52
2016-05-12T12:18:39.905Z,994.61
2016-05-12T12:19:39.907Z,994.51
2016-05-12T12:20:39.879Z,994.48
2016-05-12T12:21:39.881Z,994.52
2016-05-12T12:22:39.916Z,994.54
2016-05-12T12:23:39.855Z,994.48
2016-05-12T12:24:39.843Z,994.52
2016-05-12T12:25:39.829Z,994.46
2016-05-12T12:26:39.816Z,994.52
2016-05-12T12:27:39.804Z,994.48
2016-05-12T12:28:39.806Z,994.51
2016-05-12T12:29:39.793Z,994.52
2016-05-12T12:30:39.826Z,994.48
2016-05-12T12:31:39.814Z,994.44